createdAt,value
2018-05-13T00:01:04.827Z,85.60
2018-05-13T00:03:33.868Z,85.00
2018-05-13T00:06:02.772Z,85.50
2018-05-13T00:08:32.555Z,84.80
2018-05-13T00:11:01.426Z,84.80
2018-05-13T00:13:30.492Z,85.00
2018-05-13T00:15:59.592Z,85.20
2018-05-13T00:18:28.584Z,85.60
2018-05-13T00:20:57.485Z,85.10
2018-05-13T00:23:26.354Z,85.70
2018-05-13T00:25:55.344Z,85.90
2018-05-13T00:28:24.293Z,86.30
2018-05-13T00:30:53.156Z,86.00
2018-05-13T00:33:22.040Z,86.40
2018-05-13T00:35:50.904Z,86.80
2018-05-13T00:38:19.841Z,87.70
2018-05-13T00:40:48.709Z,88.50
2018-05-13T00:43:18.483Z,88.00
2018-05-13T00:45:48.380Z,89.50
2018-05-13T00:48:17.261Z,89.30
2018-05-13T00:50:46.160Z,89.50
2018-05-13T00:53:15.033Z,89.70
2018-05-13T00:55:44.081Z,89.60
2018-05-13T00:58:12.969Z,90.00
2018-05-13T01:00:42.026Z,90.20
2018-05-13T01:03:10.920Z,90.10
2018-05-13T01:05:40.063Z,90.40
2018-05-13T01:08:08.947Z,90.30
2018-05-13T01:10:37.905Z,90.20
2018-05-13T01:13:06.791Z,90.30
2018-05-13T01:15:35.693Z,90.40
2018-05-13T01:18:04.606Z,90.20
2018-05-13T01:20:34.228Z,90.10
2018-05-13T01:23:03.133Z,90.10
2018-05-13T01:25:32.092Z,89.90
2018-05-13T01:28:00.987Z,90.10
2018-05-13T01:30:30.028Z,90.00
2018-05-13T01:32:59.699Z,89.40
2018-05-13T01:35:28.732Z,89.70
2018-05-13T01:37:57.695Z,89.70
2018-05-13T01:40:26.715Z,89.60
2018-05-13T01:42:55.615Z,89.80
2018-05-13T01:45:24.501Z,89.60
2018-05-13T01:47:53.355Z,89.50
2018-05-13T01:50:22.523Z,89.60
2018-05-13T01:52:51.396Z,89.60
2018-05-13T01:55:20.455Z,89.50
2018-05-13T01:57:49.317Z,89.30
2018-05-13T02:00:18.185Z,89.00
2018-05-13T02:02:47.873Z,88.30
2018-05-13T02:05:16.884Z,88.20
2018-05-13T02:07:46.524Z,87.70
2018-05-13T02:10:15.384Z,87.70
2018-05-13T02:12:45.018Z,87.50
2018-05-13T02:15:13.897Z,87.40
2018-05-13T02:17:43.056Z,86.70
2018-05-13T02:20:11.956Z,86.70
2018-05-13T02:22:40.909Z,86.80
2018-05-13T02:25:09.824Z,86.20
2018-05-13T02:27:38.732Z,85.60
2018-05-13T02:30:07.720Z,85.00
2018-05-13T02:32:36.909Z,84.90
2018-05-13T02:35:05.764Z,84.90
2018-05-13T02:37:35.396Z,83.70
2018-05-13T02:40:04.552Z,83.50
2018-05-13T02:42:33.467Z,83.50
2018-05-13T02:45:02.407Z,82.90
2018-05-13T02:47:32.052Z,83.40
2018-05-13T02:50:00.903Z,83.30
2018-05-13T02:52:30.565Z,81.90
2018-05-13T02:54:59.487Z,81.80
2018-05-13T02:57:28.404Z,81.80
2018-05-13T02:59:58.141Z,82.70
2018-05-13T03:02:27.136Z,82.70
2018-05-13T03:04:56.096Z,81.30
2018-05-13T03:07:24.993Z,79.80
2018-05-13T03:09:54.613Z,80.20
2018-05-13T03:12:23.468Z,80.10
2018-05-13T03:14:52.549Z,80.50
2018-05-13T03:17:21.423Z,79.30
2018-05-13T03:19:50.288Z,79.10
2018-05-13T03:22:19.208Z,79.10
2018-05-13T03:24:48.084Z,79.80
2018-05-13T03:27:16.949Z,80.30
2018-05-13T03:29:45.868Z,79.90
2018-05-13T03:32:14.750Z,78.70
2018-05-13T03:34:43.668Z,78.50
2018-05-13T03:37:12.564Z,78.60
2018-05-13T03:39:41.680Z,77.50
2018-05-13T03:42:10.822Z,77.60
2018-05-13T03:44:39.767Z,77.30
2018-05-13T03:47:08.644Z,76.80
2018-05-13T03:49:37.500Z,75.40
2018-05-13T03:52:06.613Z,74.60
2018-05-13T03:54:35.503Z,74.50
2018-05-13T03:57:04.372Z,72.50
2018-05-13T03:59:33.240Z,72.60
2018-05-13T04:02:02.115Z,72.50
2018-05-13T04:04:31.802Z,71.20
2018-05-13T04:07:00.673Z,71.20
2018-05-13T04:09:47.087Z,71.70
2018-05-13T04:12:34.740Z,70.60
2018-05-13T04:15:25.017Z,69.10
2018-05-13T04:17:53.900Z,69.10
2018-05-13T04:20:22.939Z,69.60
2018-05-13T04:22:51.816Z,68.00
2018-05-13T04:25:21.524Z,67.30
2018-05-13T04:27:51.403Z,67.00
2018-05-13T04:30:20.532Z,66.90
2018-05-13T04:32:49.448Z,66.70
2018-05-13T04:35:18.352Z,65.60
2018-05-13T04:37:47.241Z,65.90
2018-05-13T04:40:16.413Z,66.00
2018-05-13T04:42:45.283Z,65.30
2018-05-13T04:45:14.914Z,64.20
2018-05-13T04:47:43.773Z,64.20
2018-05-13T04:50:12.716Z,64.50
2018-05-13T04:52:41.633Z,64.90
2018-05-13T04:55:10.564Z,63.10
2018-05-13T04:57:40.196Z,61.30
2018-05-13T05:00:09.156Z,61.30
2018-05-13T05:02:38.811Z,61.40
2018-05-13T05:05:07.685Z,61.50
2018-05-13T05:07:36.542Z,60.80
2018-05-13T05:10:06.234Z,61.20
2018-05-13T05:12:35.385Z,61.10
2018-05-13T05:15:04.312Z,61.50
2018-05-13T05:17:33.300Z,61.10
2018-05-13T05:20:02.173Z,60.40
2018-05-13T05:22:31.050Z,58.50
2018-05-13T05:25:00.243Z,56.70
2018-05-13T05:27:29.202Z,56.50
2018-05-13T05:29:58.853Z,57.60
2018-05-13T05:32:28.001Z,57.50
2018-05-13T05:34:57.641Z,55.50
2018-05-13T05:37:26.508Z,55.40
2018-05-13T05:39:56.367Z,55.30
2018-05-13T05:42:25.417Z,55.30
2018-05-13T05:44:54.297Z,53.90
2018-05-13T05:47:23.176Z,54.50
2018-05-13T05:49:52.048Z,54.80
2018-05-13T05:52:21.031Z,54.60
2018-05-13T05:54:49.929Z,54.30
2018-05-13T05:57:19.004Z,54.20
2018-05-13T05:59:47.856Z,52.40
2018-05-13T06:02:17.581Z,53.20
2018-05-13T06:04:46.446Z,53.20
2018-05-13T06:07:16.107Z,52.70
2018-05-13T06:09:45.018Z,52.50
2018-05-13T06:12:14.007Z,52.90
2018-05-13T06:14:42.835Z,53.50
2018-05-13T06:17:12.608Z,52.00
2018-05-13T06:19:41.590Z,52.00
2018-05-13T06:22:10.402Z,50.50
2018-05-13T06:24:40.103Z,50.00
2018-05-13T06:27:09.224Z,49.90
2018-05-13T06:29:38.112Z,50.90
2018-05-13T06:32:07.153Z,49.30
2018-05-13T06:34:36.153Z,50.50
2018-05-13T06:37:05.076Z,49.80
2018-05-13T06:39:34.027Z,49.50
2018-05-13T06:42:03.685Z,49.00
2018-05-13T06:44:32.593Z,49.00
2018-05-13T06:47:02.572Z,48.00
2018-05-13T06:49:31.448Z,48.00
2018-05-13T06:52:00.337Z,47.50
2018-05-13T06:54:29.410Z,48.50
2018-05-13T06:56:58.297Z,49.40
2018-05-13T06:59:27.224Z,49.70
2018-05-13T07:01:56.124Z,47.60
2018-05-13T07:04:25.080Z,48.10
2018-05-13T07:06:53.964Z,49.00
2018-05-13T07:09:22.845Z,48.00
2018-05-13T07:11:51.712Z,47.90
2018-05-13T07:14:25.423Z,49.70
2018-05-13T07:16:55.061Z,49.00
2018-05-13T07:19:24.212Z,49.00
2018-05-13T07:21:53.136Z,49.20
2018-05-13T07:24:22.013Z,46.60
2018-05-13T07:26:51.787Z,48.40
2018-05-13T07:29:20.759Z,48.40
2018-05-13T07:31:49.743Z,49.30
2018-05-13T07:34:18.627Z,48.50
2018-05-13T07:36:47.515Z,48.30
2018-05-13T07:39:16.456Z,47.00
2018-05-13T07:41:45.332Z,47.00
2018-05-13T07:44:14.235Z,47.20
2018-05-13T07:46:43.280Z,48.00
2018-05-13T07:49:12.244Z,47.80
2018-05-13T07:51:41.165Z,46.90
2018-05-13T07:54:10.052Z,45.90
2018-05-13T07:56:39.017Z,46.10
2018-05-13T07:59:08.833Z,47.50
2018-05-13T08:01:37.724Z,47.40
2018-05-13T08:04:06.792Z,46.60
2018-05-13T08:06:35.954Z,46.10
2018-05-13T08:09:05.702Z,46.00
2018-05-13T08:11:34.685Z,46.90
2018-05-13T08:14:03.780Z,45.70
2018-05-13T08:16:33.443Z,44.20
2018-05-13T08:19:02.393Z,44.20
2018-05-13T08:21:31.320Z,45.40
2018-05-13T08:24:00.235Z,45.40
2018-05-13T08:26:29.347Z,44.20
2018-05-13T08:28:58.342Z,43.60
2018-05-13T08:31:27.241Z,43.20
2018-05-13T08:33:56.978Z,42.60
2018-05-13T08:36:25.962Z,42.70
2018-05-13T08:38:54.892Z,44.70
2018-05-13T08:41:23.785Z,42.70
2018-05-13T08:43:52.918Z,42.80
2018-05-13T08:46:21.794Z,42.40
2018-05-13T08:48:50.704Z,42.20
2018-05-13T08:51:19.640Z,42.80
2018-05-13T08:53:48.564Z,43.00
2018-05-13T08:56:17.802Z,42.00
2018-05-13T08:58:47.023Z,40.60
2018-05-13T09:01:16.716Z,41.00
2018-05-13T09:03:46.398Z,40.30
2018-05-13T09:06:15.419Z,40.30
2018-05-13T09:08:44.359Z,41.10
2018-05-13T09:11:13.357Z,40.30
2018-05-13T09:13:42.323Z,39.60
2018-05-13T09:16:11.200Z,40.40
2018-05-13T09:18:40.107Z,41.00
2018-05-13T09:21:08.985Z,41.50
2018-05-13T09:23:37.965Z,40.50
2018-05-13T09:26:06.828Z,40.30
2018-05-13T09:28:35.699Z,39.10
2018-05-13T09:31:04.824Z,38.40
2018-05-13T09:33:33.840Z,41.50
2018-05-13T09:36:02.917Z,41.30
2018-05-13T09:38:31.795Z,41.70
2018-05-13T09:41:00.731Z,41.60
2018-05-13T09:43:29.824Z,42.50
2018-05-13T09:45:58.712Z,41.70
2018-05-13T09:48:27.718Z,41.80
2018-05-13T09:50:56.617Z,42.50
2018-05-13T09:53:25.501Z,42.10
2018-05-13T09:55:54.393Z,41.10
2018-05-13T09:58:23.279Z,41.50
2018-05-13T10:00:52.288Z,41.70
2018-05-13T10:03:21.212Z,41.90
2018-05-13T10:05:50.100Z,40.90
2018-05-13T10:08:19.075Z,41.00
2018-05-13T10:10:47.950Z,42.10
2018-05-13T10:13:17.031Z,42.40
2018-05-13T10:15:45.897Z,42.00
2018-05-13T10:18:14.814Z,40.40
2018-05-13T10:20:43.768Z,42.20
2018-05-13T10:23:13.542Z,43.50
2018-05-13T10:25:42.514Z,43.50
2018-05-13T10:28:11.438Z,42.00
2018-05-13T10:30:40.421Z,42.50
2018-05-13T10:33:09.340Z,41.20
2018-05-13T10:35:38.233Z,41.20
2018-05-13T10:38:07.949Z,41.00
2018-05-13T10:40:36.923Z,41.00
2018-05-13T10:43:06.224Z,41.20
2018-05-13T10:45:35.133Z,42.10
2018-05-13T10:48:04.852Z,40.90
2018-05-13T10:50:33.778Z,40.90
2018-05-13T10:53:02.804Z,40.50
2018-05-13T10:55:31.720Z,41.40
2018-05-13T10:58:01.468Z,42.70
2018-05-13T11:00:30.974Z,42.70
2018-05-13T11:03:00.171Z,41.90
2018-05-13T11:05:29.364Z,41.10
2018-05-13T11:07:58.951Z,41.10
2018-05-13T11:10:28.083Z,40.70
2018-05-13T11:12:57.075Z,40.70
2018-05-13T11:15:26.125Z,43.10
2018-05-13T11:17:55.811Z,43.50
2018-05-13T11:20:24.825Z,43.50
2018-05-13T11:22:54.478Z,44.10
2018-05-13T11:25:23.520Z,43.40
2018-05-13T11:27:53.173Z,41.00
2018-05-13T11:30:22.072Z,41.00
2018-05-13T11:32:50.993Z,42.70
2018-05-13T11:35:20.013Z,43.50
2018-05-13T11:37:49.668Z,45.60
2018-05-13T11:40:18.574Z,45.50
2018-05-13T11:42:47.476Z,47.20
2018-05-13T11:45:16.392Z,46.30
2018-05-13T11:47:46.076Z,48.50
2018-05-13T11:50:14.986Z,48.40
2018-05-13T11:52:44.683Z,46.80
2018-05-13T11:55:13.568Z,46.40
2018-05-13T11:57:42.624Z,47.20
2018-05-13T12:00:11.511Z,45.00
2018-05-13T12:02:40.509Z,45.30
2018-05-13T12:05:09.423Z,46.80
2018-05-13T12:07:38.329Z,45.60
2018-05-13T12:10:07.328Z,44.90
2018-05-13T12:12:36.251Z,45.90
2018-05-13T12:15:05.218Z,46.40
2018-05-13T12:17:34.092Z,46.20
2018-05-13T12:20:03.787Z,46.20
2018-05-13T12:22:32.696Z,46.20
2018-05-13T12:25:01.672Z,46.30
2018-05-13T12:27:30.916Z,46.30
2018-05-13T12:30:00.758Z,47.40
2018-05-13T12:32:29.847Z,47.40
2018-05-13T12:34:58.783Z,45.90
2018-05-13T12:37:27.870Z,46.10
2018-05-13T12:39:56.782Z,45.90
2018-05-13T12:42:25.688Z,46.60
2018-05-13T12:44:54.630Z,47.90
2018-05-13T12:47:23.512Z,46.90
2018-05-13T12:49:52.424Z,47.60
2018-05-13T12:52:21.493Z,47.50
2018-05-13T12:54:50.388Z,49.60
2018-05-13T12:57:19.292Z,48.10
2018-05-13T12:59:48.429Z,48.10
2018-05-13T13:02:18.089Z,46.80
2018-05-13T13:04:47.009Z,46.10
2018-05-13T13:07:15.959Z,46.70
2018-05-13T13:09:44.893Z,46.40
2018-05-13T13:12:14.648Z,46.40
2018-05-13T13:14:43.651Z,46.40
2018-05-13T13:17:12.761Z,47.80
2018-05-13T13:19:41.733Z,46.60
2018-05-13T13:22:10.651Z,47.50
2018-05-13T13:24:39.548Z,46.70
2018-05-13T13:27:08.472Z,47.40
2018-05-13T13:29:38.171Z,47.10
2018-05-13T13:32:07.079Z,46.70
2018-05-13T13:34:36.744Z,47.30
2018-05-13T13:37:05.683Z,47.20
2018-05-13T13:39:34.622Z,47.80
2018-05-13T13:42:03.556Z,48.10
2018-05-13T13:44:33.371Z,48.90
2018-05-13T13:47:03.076Z,48.20
2018-05-13T13:49:32.984Z,48.70
2018-05-13T13:52:01.956Z,48.60
2018-05-13T13:54:31.202Z,48.90
2018-05-13T13:57:00.121Z,48.50
2018-05-13T13:59:29.272Z,48.10
2018-05-13T14:01:58.520Z,47.90
2018-05-13T14:04:27.444Z,48.10
2018-05-13T14:06:56.496Z,48.30
2018-05-13T14:09:25.547Z,47.60
2018-05-13T14:11:55.501Z,49.50
2018-05-13T14:14:24.366Z,49.50
2018-05-13T14:16:54.067Z,48.60
2018-05-13T14:19:23.813Z,46.70
2018-05-13T14:21:52.739Z,46.70
2018-05-13T14:24:21.732Z,47.50
2018-05-13T14:26:50.778Z,48.00
2018-05-13T14:29:19.889Z,46.80
2018-05-13T14:31:48.807Z,46.30
2018-05-13T14:34:17.703Z,47.70
2018-05-13T14:36:48.151Z,47.00
2018-05-13T14:39:17.848Z,47.00
2018-05-13T14:41:46.752Z,47.00
2018-05-13T14:44:16.461Z,47.20
2018-05-13T14:46:46.269Z,47.20
2018-05-13T14:49:16.048Z,48.00
2018-05-13T14:51:44.965Z,47.80
2018-05-13T14:54:14.779Z,47.20
2018-05-13T14:56:43.725Z,47.10
2018-05-13T14:59:12.683Z,46.80
2018-05-13T15:01:42.380Z,47.10
2018-05-13T15:04:11.276Z,47.70
2018-05-13T15:06:41.074Z,47.80
2018-05-13T15:09:10.128Z,47.70
2018-05-13T15:11:39.052Z,47.60
2018-05-13T15:14:07.976Z,48.80
2018-05-13T15:16:37.750Z,47.80
2018-05-13T15:19:08.052Z,48.10
2018-05-13T15:21:36.957Z,48.10
2018-05-13T15:24:06.016Z,48.70
2018-05-13T15:26:35.219Z,47.60
2018-05-13T15:29:04.247Z,47.50
2018-05-13T15:31:33.090Z,46.90
2018-05-13T15:34:02.048Z,47.40
2018-05-13T15:36:31.036Z,47.00
2018-05-13T15:39:00.358Z,46.90
2018-05-13T15:41:30.013Z,47.50
2018-05-13T15:43:58.905Z,47.50
2018-05-13T15:46:27.922Z,47.20
2018-05-13T15:48:57.088Z,48.10
2018-05-13T15:51:26.393Z,47.20
2018-05-13T15:53:55.511Z,47.30
2018-05-13T15:56:24.583Z,47.00
2018-05-13T15:58:53.658Z,47.30
2018-05-13T16:01:22.567Z,47.20
2018-05-13T16:03:51.531Z,47.70
2018-05-13T16:06:20.535Z,47.00
2018-05-13T16:08:49.432Z,47.40
2018-05-13T16:11:18.577Z,48.20
2018-05-13T16:13:47.516Z,47.80
2018-05-13T16:16:16.422Z,48.80
2018-05-13T16:18:45.603Z,48.70
2018-05-13T16:21:14.417Z,48.90
2018-05-13T16:23:43.351Z,48.70
2018-05-13T16:26:13.165Z,48.00
2018-05-13T16:28:42.814Z,48.80
2018-05-13T16:31:12.453Z,48.80
2018-05-13T16:33:42.907Z,49.40
2018-05-13T16:36:12.591Z,48.60
2018-05-13T16:38:41.536Z,48.60
2018-05-13T16:41:10.507Z,49.50
2018-05-13T16:43:39.416Z,49.20
2018-05-13T16:46:08.292Z,49.10
2018-05-13T16:48:37.208Z,49.10
2018-05-13T16:51:06.307Z,49.10
2018-05-13T16:53:35.229Z,49.20
2018-05-13T16:56:04.243Z,49.90
2018-05-13T16:58:34.155Z,50.10
2018-05-13T17:01:03.054Z,49.70
2018-05-13T17:03:32.897Z,50.10
2018-05-13T17:06:04.729Z,50.00
2018-05-13T17:08:34.741Z,50.70
2018-05-13T17:11:04.470Z,50.40
2018-05-13T17:13:33.387Z,50.30
2018-05-13T17:16:02.532Z,50.30
2018-05-13T17:18:31.464Z,50.30
2018-05-13T17:21:00.426Z,50.60
2018-05-13T17:23:30.107Z,51.10
2018-05-13T17:25:59.022Z,51.10
2018-05-13T17:28:28.731Z,50.80
2018-05-13T17:30:57.732Z,50.80
2018-05-13T17:33:27.564Z,51.20
2018-05-13T17:35:56.450Z,51.20
2018-05-13T17:38:25.477Z,51.00
2018-05-13T17:40:54.342Z,50.70
2018-05-13T17:43:23.256Z,51.10
2018-05-13T17:45:52.232Z,50.80
2018-05-13T17:48:21.293Z,51.10
2018-05-13T17:50:50.389Z,51.10
2018-05-13T17:53:20.077Z,51.90
2018-05-13T17:55:49.225Z,51.90
2018-05-13T17:58:18.137Z,51.50
2018-05-13T18:00:47.135Z,52.50
2018-05-13T18:03:16.228Z,52.90
2018-05-13T18:05:45.128Z,52.80
2018-05-13T18:08:15.321Z,53.30
2018-05-13T18:10:44.351Z,52.90
2018-05-13T18:13:13.244Z,53.30
2018-05-13T18:15:42.264Z,53.40
2018-05-13T18:18:12.142Z,54.10
2018-05-13T18:20:41.027Z,53.50
2018-05-13T18:23:10.041Z,53.60
2018-05-13T18:25:39.031Z,54.00
2018-05-13T18:28:08.170Z,55.00
2018-05-13T18:30:37.143Z,55.80
2018-05-13T18:33:07.154Z,56.90
2018-05-13T18:35:36.833Z,57.00
2018-05-13T18:38:05.784Z,57.00
2018-05-13T18:40:34.992Z,57.30
2018-05-13T18:43:04.025Z,57.70
2018-05-13T18:45:33.032Z,59.70
2018-05-13T18:48:02.084Z,59.30
2018-05-13T18:50:31.025Z,60.00
2018-05-13T18:53:00.095Z,60.30
2018-05-13T18:55:29.228Z,58.50
2018-05-13T18:57:58.126Z,58.60
2018-05-13T19:00:27.035Z,57.80
2018-05-13T19:02:55.981Z,57.90
2018-05-13T19:05:25.156Z,58.10
2018-05-13T19:07:54.133Z,58.30
2018-05-13T19:10:23.336Z,60.00
2018-05-13T19:12:52.265Z,59.50
2018-05-13T19:15:22.253Z,60.10
2018-05-13T19:17:51.476Z,60.10
2018-05-13T19:20:20.417Z,61.40
2018-05-13T19:22:49.346Z,60.50
2018-05-13T19:25:18.757Z,62.60
2018-05-13T19:27:47.737Z,61.10
2018-05-13T19:30:16.681Z,61.70
2018-05-13T19:32:45.609Z,61.90
2018-05-13T19:35:14.536Z,60.90
2018-05-13T19:37:44.276Z,61.60
2018-05-13T19:40:13.340Z,60.80
2018-05-13T19:42:42.389Z,60.50
2018-05-13T19:45:11.513Z,59.70
2018-05-13T19:47:40.582Z,59.50
2018-05-13T19:50:09.472Z,58.20
2018-05-13T19:52:38.435Z,59.50
2018-05-13T19:55:07.397Z,58.80
2018-05-13T19:57:37.095Z,58.70
2018-05-13T20:00:06.076Z,58.60
2018-05-13T20:02:35.054Z,58.30
2018-05-13T20:05:04.621Z,58.40
2018-05-13T20:07:33.583Z,57.60
2018-05-13T20:10:02.654Z,58.10
2018-05-13T20:12:31.942Z,58.50
2018-05-13T20:15:00.997Z,58.00
2018-05-13T20:17:29.941Z,58.80
2018-05-13T20:19:58.841Z,58.80
2018-05-13T20:22:27.789Z,59.30
2018-05-13T20:24:56.716Z,59.60
2018-05-13T20:27:25.721Z,59.80
2018-05-13T20:29:54.681Z,59.00
2018-05-13T20:32:23.721Z,57.70
2018-05-13T20:34:53.495Z,59.10
2018-05-13T20:37:22.804Z,59.00
2018-05-13T20:39:51.933Z,59.80
2018-05-13T20:42:21.685Z,60.30
2018-05-13T20:44:50.846Z,60.30
2018-05-13T20:47:19.963Z,58.90
2018-05-13T20:49:49.199Z,58.90
2018-05-13T20:52:18.161Z,59.00
2018-05-13T20:54:47.438Z,59.20
2018-05-13T20:57:17.452Z,62.70
2018-05-13T20:59:47.594Z,62.00
2018-05-13T21:02:17.413Z,60.70
2018-05-13T21:04:46.480Z,61.40
2018-05-13T21:07:15.854Z,61.70
2018-05-13T21:09:44.838Z,62.10
2018-05-13T21:12:14.075Z,60.60
2018-05-13T21:14:43.252Z,63.00
2018-05-13T21:17:12.248Z,62.60
2018-05-13T21:19:41.264Z,63.40
2018-05-13T21:22:10.191Z,63.10
2018-05-13T21:24:39.062Z,63.40
2018-05-13T21:27:08.261Z,63.00
2018-05-13T21:29:37.302Z,63.00
2018-05-13T21:32:06.643Z,62.50
2018-05-13T21:34:36.013Z,64.10
2018-05-13T21:37:05.702Z,63.10
2018-05-13T21:39:35.137Z,63.10
2018-05-13T21:42:04.823Z,61.60
2018-05-13T21:44:33.784Z,61.50
2018-05-13T21:47:02.998Z,61.00
2018-05-13T21:49:32.012Z,61.00
2018-05-13T21:52:01.232Z,63.10
2018-05-13T21:54:30.649Z,62.70
2018-05-13T21:57:00.687Z,62.90
2018-05-13T21:59:29.849Z,62.90
2018-05-13T22:02:00.495Z,63.40
2018-05-13T22:04:29.408Z,63.40
2018-05-13T22:06:58.619Z,64.30
2018-05-13T22:09:28.080Z,64.70
2018-05-13T22:11:57.115Z,65.80
2018-05-13T22:14:26.055Z,65.00
2018-05-13T22:16:55.380Z,64.70
2018-05-13T22:19:24.310Z,64.40
2018-05-13T22:21:53.210Z,64.80
2018-05-13T22:24:22.277Z,65.20
2018-05-13T22:26:51.186Z,65.60
2018-05-13T22:29:20.709Z,65.20
2018-05-13T22:31:50.336Z,66.00
2018-05-13T22:34:20.184Z,66.10
2018-05-13T22:36:49.116Z,66.20
2018-05-13T22:39:19.504Z,64.90
2018-05-13T22:41:48.408Z,64.80
2018-05-13T22:44:17.273Z,66.10
2018-05-13T22:46:46.147Z,67.90
2018-05-13T22:49:15.070Z,67.30
2018-05-13T22:51:43.964Z,65.50
2018-05-13T22:54:12.917Z,66.60
2018-05-13T22:56:41.836Z,67.00
2018-05-13T22:59:10.785Z,66.30
2018-05-13T23:01:40.480Z,68.60
2018-05-13T23:04:09.367Z,68.60
2018-05-13T23:06:38.228Z,68.00
2018-05-13T23:09:07.111Z,68.10
2018-05-13T23:11:35.995Z,69.70
2018-05-13T23:14:04.883Z,69.80
2018-05-13T23:16:33.948Z,70.00
2018-05-13T23:19:03.764Z,68.00
2018-05-13T23:21:33.404Z,69.80
2018-05-13T23:24:02.357Z,69.70
2018-05-13T23:26:32.109Z,69.00
2018-05-13T23:29:01.020Z,68.80
2018-05-13T23:31:29.887Z,70.80
2018-05-13T23:33:58.880Z,70.30
2018-05-13T23:36:27.833Z,70.30
2018-05-13T23:38:57.680Z,71.10
2018-05-13T23:41:26.808Z,71.10
2018-05-13T23:43:55.818Z,71.80
2018-05-13T23:46:24.691Z,72.00
2018-05-13T23:48:53.680Z,70.00
2018-05-13T23:51:22.691Z,71.30
2018-05-13T23:53:51.736Z,72.10
2018-05-13T23:56:20.680Z,72.90
2018-05-13T23:58:49.831Z,71.90
